createdAt,value
2018-05-10T00:02:27.400Z,66.20
2018-05-10T00:04:58.020Z,66.20
2018-05-10T00:07:26.604Z,66.20
2018-05-10T00:09:55.561Z,66.20
2018-05-10T00:12:23.960Z,66.10
2018-05-10T00:14:52.520Z,66.10
2018-05-10T00:17:20.921Z,66.00
2018-05-10T00:19:49.501Z,65.80
2018-05-10T00:22:18.267Z,65.80
2018-05-10T00:24:47.276Z,65.30
2018-05-10T00:27:15.799Z,65.20
2018-05-10T00:29:45.093Z,65.20
2018-05-10T00:32:14.236Z,65.20
2018-05-10T00:34:42.653Z,65.20
2018-05-10T00:37:11.022Z,66.10
2018-05-10T00:39:39.424Z,65.20
2018-05-10T00:42:08.566Z,65.30
2018-05-10T00:44:36.938Z,65.30
2018-05-10T00:47:05.344Z,65.60
2018-05-10T00:49:33.718Z,65.20
2018-05-10T00:52:02.121Z,65.30
2018-05-10T00:54:48.324Z,65.50
2018-05-10T00:57:16.809Z,65.70
2018-05-10T00:59:46.052Z,65.70
2018-05-10T01:02:16.100Z,65.60
2018-05-10T01:04:44.576Z,66.30
2018-05-10T01:07:12.972Z,65.70
2018-05-10T01:09:41.419Z,65.80
2018-05-10T01:12:10.349Z,65.80
2018-05-10T01:14:38.896Z,65.80
2018-05-10T01:17:10.401Z,66.10
2018-05-10T01:19:39.132Z,66.20
2018-05-10T01:22:08.156Z,66.30
2018-05-10T01:24:36.530Z,66.00
2018-05-10T01:27:04.936Z,66.10
2018-05-10T01:29:34.076Z,66.00
2018-05-10T01:32:02.460Z,65.90
2018-05-10T01:34:30.825Z,66.30
2018-05-10T01:36:59.416Z,66.70
2018-05-10T01:39:27.794Z,66.80
2018-05-10T01:41:56.173Z,67.20
2018-05-10T01:44:24.577Z,67.50
2018-05-10T01:46:52.957Z,68.10
2018-05-10T01:49:21.374Z,68.60
2018-05-10T01:51:49.752Z,68.70
2018-05-10T01:54:18.461Z,68.90
2018-05-10T01:56:46.841Z,69.10
2018-05-10T01:59:15.217Z,69.40
2018-05-10T02:01:43.620Z,69.70
2018-05-10T02:04:12.193Z,70.10
2018-05-10T02:06:40.601Z,70.50
2018-05-10T02:09:09.067Z,70.80
2018-05-10T02:11:37.541Z,71.10
2018-05-10T02:14:05.911Z,71.00
2018-05-10T02:16:34.281Z,70.90
2018-05-10T02:19:02.685Z,70.90
2018-05-10T02:21:31.056Z,70.70
2018-05-10T02:23:59.451Z,70.10
2018-05-10T02:26:27.849Z,70.10
2018-05-10T02:28:57.033Z,69.90
2018-05-10T02:31:25.408Z,69.90
2018-05-10T02:33:53.781Z,69.50
2018-05-10T02:36:23.740Z,70.00
2018-05-10T02:38:52.864Z,70.90
2018-05-10T02:41:21.257Z,70.30
2018-05-10T02:43:49.651Z,71.00
2018-05-10T02:46:18.211Z,70.60
2018-05-10T02:48:46.581Z,71.10
2018-05-10T02:51:14.950Z,71.00
2018-05-10T02:53:43.340Z,71.50
2018-05-10T02:56:11.717Z,71.20
2018-05-10T02:58:40.126Z,71.50
2018-05-10T03:01:08.539Z,71.70
2018-05-10T03:03:37.720Z,72.40
2018-05-10T03:06:06.857Z,73.00
2018-05-10T03:08:35.240Z,72.90
2018-05-10T03:11:03.634Z,72.90
2018-05-10T03:13:32.008Z,72.90
2018-05-10T03:16:00.417Z,72.80
2018-05-10T03:18:28.794Z,72.90
2018-05-10T03:20:57.338Z,73.10
2018-05-10T03:23:25.709Z,74.20
2018-05-10T03:25:54.092Z,73.40
2018-05-10T03:28:22.527Z,73.50
2018-05-10T03:30:51.780Z,73.30
2018-05-10T03:33:20.228Z,73.10
2018-05-10T03:35:48.568Z,73.20
2018-05-10T03:38:16.971Z,72.90
2018-05-10T03:40:46.113Z,73.70
2018-05-10T03:43:14.493Z,73.70
2018-05-10T03:45:42.893Z,73.40
2018-05-10T03:48:11.268Z,73.10
2018-05-10T03:50:39.669Z,73.60
2018-05-10T03:53:08.840Z,74.00
2018-05-10T03:55:37.245Z,74.00
2018-05-10T03:58:06.392Z,74.80
2018-05-10T04:00:34.777Z,74.50
2018-05-10T04:06:50.403Z,75.00
2018-05-10T04:09:36.638Z,75.10
2018-05-10T04:12:05.806Z,74.70
2018-05-10T04:14:34.181Z,74.60
2018-05-10T04:17:02.681Z,74.60
2018-05-10T04:19:31.823Z,74.50
2018-05-10T04:22:00.189Z,74.40
2018-05-10T04:24:28.585Z,74.60
2018-05-10T04:26:56.952Z,74.40
2018-05-10T04:29:25.376Z,74.40
2018-05-10T04:31:53.749Z,74.50
2018-05-10T04:34:22.177Z,74.70
2018-05-10T04:36:50.552Z,74.60
2018-05-10T04:39:18.925Z,74.60
2018-05-10T04:41:48.090Z,74.40
2018-05-10T04:44:16.464Z,74.40
2018-05-10T04:46:44.895Z,74.40
2018-05-10T04:49:13.264Z,74.60
2018-05-10T04:51:42.090Z,74.70
2018-05-10T04:54:10.464Z,74.70
2018-05-10T04:56:38.837Z,75.00
2018-05-10T04:59:07.245Z,75.10
2018-05-10T05:01:35.624Z,74.90
2018-05-10T05:04:04.097Z,74.80
2018-05-10T05:06:33.181Z,74.10
2018-05-10T05:09:01.951Z,74.10
2018-05-10T05:11:30.317Z,73.80
2018-05-10T05:13:58.692Z,73.50
2018-05-10T05:16:27.085Z,72.90
2018-05-10T05:18:55.456Z,72.70
2018-05-10T05:21:23.855Z,72.30
2018-05-10T05:23:52.233Z,72.20
2018-05-10T05:26:20.799Z,72.00
2018-05-10T05:28:49.176Z,71.80
2018-05-10T05:31:17.543Z,71.10
2018-05-10T05:33:45.943Z,70.10
2018-05-10T05:36:14.397Z,69.70
2018-05-10T05:38:42.786Z,69.90
2018-05-10T05:41:11.193Z,69.80
2018-05-10T05:43:39.545Z,70.00
2018-05-10T05:46:07.937Z,69.90
2018-05-10T05:48:36.303Z,69.70
2018-05-10T05:51:04.698Z,69.60
2018-05-10T05:53:33.070Z,69.00
2018-05-10T05:56:01.480Z,68.80
2018-05-10T05:58:29.849Z,69.00
2018-05-10T06:00:58.303Z,67.80
2018-05-10T06:03:27.442Z,66.30
2018-05-10T06:05:56.110Z,66.30
2018-05-10T06:08:24.499Z,66.00
2018-05-10T06:10:52.881Z,66.20
2018-05-10T06:13:21.358Z,65.60
2018-05-10T06:15:49.795Z,65.20
2018-05-10T06:18:18.904Z,64.60
2018-05-10T06:20:47.298Z,64.50
2018-05-10T06:23:15.696Z,63.40
2018-05-10T06:25:44.096Z,62.90
2018-05-10T06:28:13.231Z,61.60
2018-05-10T06:30:41.640Z,61.60
2018-05-10T06:33:10.053Z,60.60
2018-05-10T06:35:39.194Z,58.80
2018-05-10T06:38:07.601Z,58.90
2018-05-10T06:40:35.988Z,58.30
2018-05-10T06:43:04.385Z,58.60
2018-05-10T06:45:33.525Z,58.30
2018-05-10T06:48:02.300Z,58.30
2018-05-10T06:50:30.689Z,57.70
2018-05-10T06:52:59.084Z,57.30
2018-05-10T06:55:27.489Z,56.10
2018-05-10T06:57:56.634Z,55.30
2018-05-10T07:00:25.130Z,55.30
2018-05-10T07:02:53.524Z,54.40
2018-05-10T07:05:22.037Z,54.80
2018-05-10T07:07:51.182Z,54.20
2018-05-10T07:10:19.617Z,54.10
2018-05-10T07:12:48.789Z,53.70
2018-05-10T07:15:17.166Z,53.70
2018-05-10T07:17:45.568Z,53.20
2018-05-10T07:20:14.721Z,51.40
2018-05-10T07:22:43.189Z,51.30
2018-05-10T07:25:11.626Z,51.10
2018-05-10T07:27:39.968Z,51.60
2018-05-10T07:30:08.364Z,51.20
2018-05-10T07:32:36.753Z,50.80
2018-05-10T07:35:06.006Z,50.10
2018-05-10T07:37:34.900Z,50.00
2018-05-10T07:40:03.325Z,50.00
2018-05-10T07:42:32.568Z,49.40
2018-05-10T07:45:00.964Z,49.40
2018-05-10T07:47:29.428Z,48.60
2018-05-10T07:49:57.773Z,48.80
2018-05-10T07:52:26.186Z,48.30
2018-05-10T07:54:54.568Z,47.20
2018-05-10T07:57:22.977Z,47.10
2018-05-10T07:59:51.350Z,47.50
2018-05-10T08:02:19.785Z,46.90
2018-05-10T08:04:48.930Z,45.30
2018-05-10T08:07:17.313Z,45.20
2018-05-10T08:09:45.735Z,45.10
2018-05-10T08:12:14.117Z,45.50
2018-05-10T08:14:42.533Z,44.70
2018-05-10T08:17:11.707Z,45.80
2018-05-10T08:19:40.081Z,44.50
2018-05-10T08:22:08.526Z,44.10
2018-05-10T08:24:37.669Z,43.10
2018-05-10T08:27:06.142Z,43.10
2018-05-10T08:29:34.506Z,42.50
2018-05-10T08:32:02.923Z,43.40
2018-05-10T08:34:31.333Z,44.10
2018-05-10T08:37:00.473Z,42.80
2018-05-10T08:39:28.876Z,42.80
2018-05-10T08:41:57.283Z,43.20
2018-05-10T08:44:26.448Z,43.40
2018-05-10T08:46:54.824Z,43.40
2018-05-10T08:49:23.604Z,43.90
2018-05-10T08:51:52.018Z,43.60
2018-05-10T08:54:20.381Z,44.90
2018-05-10T08:56:48.772Z,45.30
2018-05-10T08:59:17.153Z,46.20
2018-05-10T09:01:45.994Z,46.70
2018-05-10T09:04:14.435Z,46.30
2018-05-10T09:06:43.782Z,44.20
2018-05-10T09:09:12.171Z,44.20
2018-05-10T09:11:40.560Z,43.80
2018-05-10T09:14:09.145Z,42.20
2018-05-10T09:16:37.566Z,42.00
2018-05-10T09:19:06.607Z,41.10
2018-05-10T09:21:36.635Z,41.30
2018-05-10T09:24:05.472Z,40.70
2018-05-10T09:26:34.933Z,40.30
2018-05-10T09:29:04.804Z,40.00
2018-05-10T09:31:33.695Z,40.00
2018-05-10T09:34:02.966Z,39.10
2018-05-10T09:36:32.813Z,37.20
2018-05-10T09:39:02.221Z,37.10
2018-05-10T09:41:30.982Z,37.40
2018-05-10T09:44:00.641Z,35.90
2018-05-10T09:46:29.689Z,35.50
2018-05-10T09:48:58.114Z,34.70
2018-05-10T09:51:26.935Z,36.80
2018-05-10T09:53:57.211Z,36.90
2018-05-10T09:56:27.167Z,35.50
2018-05-10T09:58:56.653Z,35.60
2018-05-10T10:01:25.073Z,35.10
2018-05-10T10:03:54.452Z,34.10
2018-05-10T10:06:23.589Z,34.00
2018-05-10T10:08:51.962Z,33.90
2018-05-10T10:11:20.568Z,35.20
2018-05-10T10:13:48.933Z,36.30
2018-05-10T10:16:17.338Z,36.80
2018-05-10T10:18:45.719Z,35.80
2018-05-10T10:21:14.737Z,35.70
2018-05-10T10:23:43.141Z,35.90
2018-05-10T10:26:11.658Z,36.70
2018-05-10T10:28:40.070Z,35.40
2018-05-10T10:31:08.451Z,35.50
2018-05-10T10:33:36.864Z,33.30
2018-05-10T10:36:05.233Z,33.20
2018-05-10T10:38:33.973Z,34.60
2018-05-10T10:41:02.341Z,35.70
2018-05-10T10:43:33.023Z,35.20
2018-05-10T10:46:01.636Z,34.80
2018-05-10T10:48:30.136Z,32.30
2018-05-10T10:50:58.532Z,30.30
2018-05-10T10:53:28.309Z,29.70
2018-05-10T10:55:56.737Z,29.40
2018-05-10T10:58:25.419Z,29.70
2018-05-10T11:00:53.869Z,30.20
2018-05-10T11:03:23.116Z,31.60
2018-05-10T11:05:52.365Z,28.60
2018-05-10T11:08:20.803Z,28.60
2018-05-10T11:10:49.181Z,30.30
2018-05-10T11:13:18.376Z,31.30
2018-05-10T11:15:48.078Z,32.70
2018-05-10T11:18:17.968Z,32.90
2018-05-10T11:20:46.900Z,32.90
2018-05-10T11:23:16.975Z,32.30
2018-05-10T11:25:45.390Z,32.80
2018-05-10T11:28:14.533Z,29.80
2018-05-10T11:30:43.059Z,29.80
2018-05-10T11:33:12.451Z,29.10
2018-05-10T11:35:41.094Z,29.10
2018-05-10T11:38:09.465Z,28.90
2018-05-10T11:40:37.840Z,28.20
2018-05-10T11:43:07.551Z,27.50
2018-05-10T11:45:36.451Z,28.00
2018-05-10T11:48:04.883Z,27.70
2018-05-10T11:50:35.078Z,30.50
2018-05-10T11:53:04.194Z,30.40
2018-05-10T11:55:33.580Z,36.00
2018-05-10T11:58:02.753Z,36.00
2018-05-10T12:00:31.411Z,37.50
2018-05-10T12:03:00.688Z,39.20
2018-05-10T12:05:29.855Z,42.80
2018-05-10T12:07:58.720Z,42.80
2018-05-10T12:10:31.897Z,42.90
2018-05-10T12:13:03.725Z,41.90
2018-05-10T12:15:34.951Z,41.20
2018-05-10T12:18:04.171Z,42.00
2018-05-10T12:20:33.811Z,42.00
2018-05-10T12:23:04.026Z,43.10
2018-05-10T12:25:34.631Z,43.00
2018-05-10T12:28:05.062Z,41.90
2018-05-10T12:30:35.162Z,42.50
2018-05-10T12:33:05.552Z,40.50
2018-05-10T12:35:35.297Z,40.40
2018-05-10T12:38:06.394Z,35.90
2018-05-10T12:40:35.380Z,35.80
2018-05-10T12:43:05.650Z,36.10
2018-05-10T12:45:35.734Z,37.70
2018-05-10T12:48:06.530Z,37.10
2018-05-10T12:50:36.648Z,37.00
2018-05-10T12:53:06.817Z,34.90
2018-05-10T12:55:36.129Z,34.80
2018-05-10T12:58:06.313Z,35.10
2018-05-10T13:00:35.892Z,35.30
2018-05-10T13:03:06.077Z,33.90
2018-05-10T13:05:37.159Z,33.10
2018-05-10T13:08:13.604Z,32.60
2018-05-10T13:10:45.343Z,33.00
2018-05-10T13:15:55.576Z,31.50
2018-05-10T13:18:27.649Z,30.00
2018-05-10T13:20:56.202Z,30.00
2018-05-10T13:23:25.465Z,30.00
2018-05-10T13:25:57.618Z,29.40
2018-05-10T13:28:26.876Z,29.40
2018-05-10T13:30:55.753Z,28.70
2018-05-10T13:33:25.425Z,28.50
2018-05-10T13:35:55.648Z,28.00
2018-05-10T13:38:25.679Z,28.70
2018-05-10T13:40:55.381Z,29.40
2018-05-10T13:43:23.777Z,31.00
2018-05-10T13:45:53.920Z,32.30
2018-05-10T13:48:23.576Z,31.90
2018-05-10T13:50:51.966Z,31.90
2018-05-10T13:53:20.516Z,31.60
2018-05-10T13:55:48.893Z,32.00
2018-05-10T13:58:17.482Z,31.90
2018-05-10T14:00:45.853Z,33.40
2018-05-10T14:03:14.276Z,33.00
2018-05-10T14:05:43.523Z,33.00
2018-05-10T14:08:11.842Z,33.00
2018-05-10T14:10:40.233Z,34.50
2018-05-10T14:13:12.977Z,36.00
2018-05-10T14:15:42.292Z,36.90
2018-05-10T14:18:10.665Z,36.80
2018-05-10T14:20:39.042Z,38.00
2018-05-10T14:23:07.439Z,37.00
2018-05-10T14:25:35.805Z,37.20
2018-05-10T14:28:04.186Z,38.30
2018-05-10T14:30:32.780Z,38.80
2018-05-10T14:33:02.145Z,39.40
2018-05-10T14:35:30.679Z,39.30
2018-05-10T14:37:59.834Z,38.80
2018-05-10T14:40:28.233Z,38.80
2018-05-10T14:42:56.745Z,39.90
2018-05-10T14:45:25.256Z,40.40
2018-05-10T14:47:53.847Z,40.70
2018-05-10T14:50:22.529Z,40.70
2018-05-10T14:52:51.133Z,41.10
2018-05-10T14:55:19.839Z,39.70
2018-05-10T14:57:48.235Z,39.20
2018-05-10T15:00:17.361Z,37.40
2018-05-10T15:02:45.752Z,37.40
2018-05-10T15:05:14.441Z,37.70
2018-05-10T15:07:42.858Z,38.50
2018-05-10T15:10:11.267Z,38.00
2018-05-10T15:12:39.635Z,39.30
2018-05-10T15:15:08.808Z,39.00
2018-05-10T15:17:37.186Z,38.90
2018-05-10T15:20:06.365Z,39.30
2018-05-10T15:22:35.549Z,39.20
2018-05-10T15:25:04.113Z,39.40
2018-05-10T15:27:32.798Z,40.20
2018-05-10T15:30:01.465Z,40.10
2018-05-10T15:32:30.180Z,40.70
2018-05-10T15:34:58.588Z,41.90
2018-05-10T15:37:27.449Z,42.20
2018-05-10T15:39:56.022Z,42.50
2018-05-10T15:42:24.418Z,42.50
2018-05-10T15:44:52.799Z,42.70
2018-05-10T15:47:21.173Z,42.90
2018-05-10T15:49:49.704Z,43.00
2018-05-10T15:52:18.092Z,43.30
2018-05-10T15:54:46.490Z,43.30
2018-05-10T15:57:16.121Z,43.20
2018-05-10T15:59:45.147Z,43.00
2018-05-10T16:02:14.119Z,43.20
2018-05-10T16:04:55.636Z,44.60
2018-05-10T16:07:35.935Z,44.60
2018-05-10T16:10:10.814Z,44.10
2018-05-10T16:12:40.780Z,43.50
2018-05-10T16:15:11.342Z,43.80
2018-05-10T16:17:42.111Z,44.00
2018-05-10T16:20:11.509Z,43.80
2018-05-10T16:22:44.704Z,44.00
2018-05-10T16:25:17.272Z,44.00
2018-05-10T16:27:54.477Z,43.10
2018-05-10T16:30:27.915Z,43.10
2018-05-10T16:32:56.925Z,43.90
2018-05-10T16:35:25.304Z,44.40
2018-05-10T16:37:53.692Z,45.00
2018-05-10T16:40:22.126Z,45.40
2018-05-10T16:42:50.505Z,46.50
2018-05-10T16:45:18.909Z,47.20
2018-05-10T16:47:47.293Z,48.20
2018-05-10T16:50:15.888Z,48.50
2018-05-10T16:52:44.248Z,49.40
2018-05-10T16:55:12.662Z,49.40
2018-05-10T16:57:41.877Z,50.00
2018-05-10T17:00:10.255Z,49.90
2018-05-10T17:02:38.655Z,50.40
2018-05-10T17:05:07.030Z,50.90
2018-05-10T17:07:35.626Z,51.50
2018-05-10T17:10:04.089Z,52.10
2018-05-10T17:12:32.463Z,52.40
2018-05-10T17:15:01.177Z,52.90
2018-05-10T17:17:29.593Z,53.20
2018-05-10T17:19:58.035Z,53.30
2018-05-10T17:22:26.414Z,53.50
2018-05-10T17:24:54.849Z,53.60
2018-05-10T17:27:24.358Z,54.10
2018-05-10T17:29:52.746Z,54.60
2018-05-10T17:32:21.149Z,55.00
2018-05-10T17:34:49.527Z,55.50
2018-05-10T17:37:17.936Z,55.90
2018-05-10T17:39:46.316Z,56.10
2018-05-10T17:42:14.860Z,56.30
2018-05-10T17:44:43.271Z,56.20
2018-05-10T17:47:13.165Z,56.10
2018-05-10T17:49:41.653Z,56.60
2018-05-10T17:52:10.040Z,57.10
2018-05-10T17:54:38.653Z,57.40
2018-05-10T17:57:07.805Z,57.90
2018-05-10T17:59:36.709Z,57.90
2018-05-10T18:02:05.097Z,58.10
2018-05-10T18:04:33.495Z,58.50
2018-05-10T18:07:03.104Z,58.70
2018-05-10T18:09:33.611Z,59.30
2018-05-10T18:12:03.275Z,59.50
2018-05-10T18:14:31.719Z,59.50
2018-05-10T18:17:01.101Z,60.00
2018-05-10T18:19:29.476Z,60.00
2018-05-10T18:21:57.938Z,60.30
2018-05-10T18:24:26.389Z,60.80
2018-05-10T18:26:54.823Z,61.00
2018-05-10T18:29:24.025Z,61.30
2018-05-10T18:31:54.086Z,61.90
2018-05-10T18:34:24.346Z,61.90
2018-05-10T18:36:54.866Z,62.80
2018-05-10T18:39:24.549Z,63.00
2018-05-10T18:41:54.518Z,62.90
2018-05-10T18:44:23.960Z,63.00
2018-05-10T18:46:53.318Z,63.40
2018-05-10T18:49:23.042Z,63.90
2018-05-10T18:51:52.048Z,63.90
2018-05-10T18:54:20.716Z,64.30
2018-05-10T18:56:50.196Z,64.10
2018-05-10T18:59:22.919Z,64.40
2018-05-10T19:01:53.467Z,64.40
2018-05-10T19:04:22.657Z,65.00
2018-05-10T19:06:51.859Z,65.30
2018-05-10T19:09:22.583Z,66.00
2018-05-10T19:11:52.135Z,66.40
2018-05-10T19:14:22.312Z,67.00
2018-05-10T19:16:51.201Z,67.00
2018-05-10T19:19:20.849Z,67.30
2018-05-10T19:21:49.598Z,67.40
2018-05-10T19:24:18.899Z,68.50
2018-05-10T19:26:47.593Z,68.40
2018-05-10T19:29:16.021Z,68.40
2018-05-10T19:31:44.450Z,68.90
2018-05-10T19:34:13.508Z,68.60
2018-05-10T19:36:42.773Z,68.00
2018-05-10T19:39:11.361Z,67.90
2018-05-10T19:41:40.029Z,68.20
2018-05-10T19:44:09.343Z,68.80
2018-05-10T19:46:38.434Z,69.20
2018-05-10T19:49:07.137Z,69.90
2018-05-10T19:51:36.625Z,70.10
2018-05-10T19:54:05.413Z,70.30
2018-05-10T19:56:33.910Z,70.40
2018-05-10T19:59:02.329Z,70.60
2018-05-10T20:01:31.382Z,70.40
2018-05-10T20:04:01.692Z,71.30
2018-05-10T20:06:30.427Z,72.30
2018-05-10T20:08:59.109Z,72.50
2018-05-10T20:11:28.827Z,72.20
2018-05-10T20:13:57.427Z,72.00
2018-05-10T20:16:25.850Z,72.00
2018-05-10T20:18:54.304Z,72.20
2018-05-10T20:21:22.721Z,72.50
2018-05-10T20:23:51.095Z,72.40
2018-05-10T20:26:20.104Z,71.60
2018-05-10T20:28:49.306Z,70.80
2018-05-10T20:31:18.807Z,70.60
2018-05-10T20:33:47.202Z,71.10
2018-05-10T20:36:16.797Z,72.00
2018-05-10T20:38:46.324Z,72.10
2018-05-10T20:41:14.848Z,72.10
2018-05-10T20:43:44.050Z,72.30
2018-05-10T20:46:12.423Z,72.30
2018-05-10T20:48:40.819Z,72.50
2018-05-10T20:51:09.249Z,72.90
2018-05-10T20:53:37.616Z,71.90
2018-05-10T20:56:06.016Z,72.20
2018-05-10T20:58:34.390Z,72.20
2018-05-10T21:01:03.093Z,72.20
2018-05-10T21:03:31.474Z,71.70
2018-05-10T21:05:59.861Z,71.10
2018-05-10T21:08:28.257Z,71.70
2018-05-10T21:10:57.942Z,72.20
2018-05-10T21:13:26.457Z,72.40
2018-05-10T21:15:55.004Z,72.50
2018-05-10T21:18:23.400Z,72.90
2018-05-10T21:20:51.789Z,72.40
2018-05-10T21:23:20.448Z,72.40
2018-05-10T21:25:49.169Z,72.30
2018-05-10T21:28:17.613Z,72.70
2018-05-10T21:30:46.016Z,72.40
2018-05-10T21:33:14.396Z,72.40
2018-05-10T21:35:42.797Z,72.30
2018-05-10T21:38:11.941Z,72.70
2018-05-10T21:40:41.146Z,72.70
2018-05-10T21:43:09.518Z,72.40
2018-05-10T21:45:37.888Z,72.30
2018-05-10T21:48:06.292Z,72.30
2018-05-10T21:50:34.661Z,72.50
2018-05-10T21:53:03.137Z,72.50
2018-05-10T21:55:31.566Z,72.50
2018-05-10T21:58:00.733Z,72.90
2018-05-10T22:00:29.106Z,72.90
2018-05-10T22:02:57.677Z,73.00
2018-05-10T22:05:26.042Z,73.30
2018-05-10T22:07:54.414Z,73.50
2018-05-10T22:10:22.809Z,73.80
2018-05-10T22:12:51.201Z,73.80
2018-05-10T22:15:19.602Z,73.60
2018-05-10T22:17:47.975Z,73.70
2018-05-10T22:20:16.402Z,73.60
2018-05-10T22:22:44.892Z,73.40
2018-05-10T22:25:13.219Z,73.40
2018-05-10T22:27:41.662Z,73.60
2018-05-10T22:30:10.064Z,73.90
2018-05-10T22:32:38.460Z,73.90
2018-05-10T22:35:07.529Z,74.20
2018-05-10T22:37:36.006Z,74.30
2018-05-10T22:40:05.607Z,74.00
2018-05-10T22:42:34.984Z,74.50
2018-05-10T22:45:03.404Z,74.50
2018-05-10T22:47:31.877Z,75.30
2018-05-10T22:50:01.182Z,75.00
2018-05-10T22:52:29.564Z,74.90
2018-05-10T22:54:58.119Z,75.00
2018-05-10T22:57:26.497Z,75.00
2018-05-10T22:59:54.885Z,75.30
2018-05-10T23:02:23.297Z,75.30
2018-05-10T23:04:51.679Z,75.60
2018-05-10T23:07:21.173Z,76.10
2018-05-10T23:09:50.596Z,76.40
2018-05-10T23:12:21.687Z,77.40
2018-05-10T23:14:50.060Z,76.60
2018-05-10T23:17:18.461Z,76.90
2018-05-10T23:19:46.853Z,77.50
2018-05-10T23:22:16.985Z,77.90
2018-05-10T23:24:45.839Z,78.20
2018-05-10T23:27:14.243Z,78.70
2018-05-10T23:29:42.619Z,78.90
2018-05-10T23:32:11.325Z,78.90
2018-05-10T23:34:40.498Z,79.40
2018-05-10T23:37:09.697Z,79.10
2018-05-10T23:39:38.253Z,79.20
2018-05-10T23:42:07.694Z,79.40
2018-05-10T23:44:36.887Z,79.40
2018-05-10T23:47:05.265Z,79.40
2018-05-10T23:49:35.144Z,79.10
2018-05-10T23:52:03.553Z,79.10
2018-05-10T23:54:32.360Z,78.60
2018-05-10T23:57:01.526Z,79.00
2018-05-10T23:59:29.896Z,79.00
